createdAt,value
2018-10-18T00:00:43.509Z,51.07
2018-10-18T00:05:47.208Z,50.47
2018-10-18T00:10:50.847Z,53.13
2018-10-18T00:15:54.683Z,46.10
2018-10-18T00:20:58.334Z,46.37
2018-10-18T00:26:02.121Z,48.40
2018-10-18T00:31:05.800Z,53.13
2018-10-18T00:36:09.579Z,54.90
2018-10-18T00:41:13.214Z,52.27
2018-10-18T00:46:16.862Z,48.60
2018-10-18T00:51:20.498Z,52.40
2018-10-18T00:56:24.162Z,51.90
2018-10-18T01:01:27.790Z,56.87
2018-10-18T01:06:31.595Z,55.90
2018-10-18T01:11:35.266Z,48.37
2018-10-18T01:16:38.941Z,46.30
2018-10-18T01:21:42.583Z,52.13
2018-10-18T01:26:46.198Z,49.93
2018-10-18T01:31:49.919Z,50.27
2018-10-18T01:36:53.618Z,53.03
2018-10-18T01:41:57.372Z,45.50
2018-10-18T01:47:00.999Z,48.73
2018-10-18T01:52:05.050Z,49.93
2018-10-18T01:57:08.699Z,45.23
2018-10-18T02:02:12.377Z,48.37
2018-10-18T02:07:15.965Z,50.70
2018-10-18T02:12:19.598Z,45.70
2018-10-18T02:17:23.265Z,55.03
2018-10-18T02:22:27.095Z,46.33
2018-10-18T02:27:30.739Z,59.77
2018-10-18T02:32:34.384Z,49.30
2018-10-18T02:37:38.038Z,49.70
2018-10-18T02:42:41.691Z,53.93
2018-10-18T02:47:45.820Z,50.67
2018-10-18T02:52:49.450Z,51.53
2018-10-18T02:57:53.247Z,53.63
2018-10-18T03:02:56.879Z,54.20
2018-10-18T03:08:00.790Z,50.50
2018-10-18T03:13:05.301Z,46.67
2018-10-18T03:18:09.101Z,45.37
2018-10-18T03:23:12.683Z,47.93
2018-10-18T03:28:16.380Z,56.23
2018-10-18T03:33:20.035Z,51.73
2018-10-18T03:38:23.708Z,50.70
2018-10-18T03:43:27.431Z,67.30
2018-10-18T03:48:31.056Z,49.27
2018-10-18T03:53:34.694Z,50.27
2018-10-18T03:58:38.316Z,47.43
2018-10-18T04:03:42.897Z,51.93
2018-10-18T04:08:46.874Z,48.53
2018-10-18T04:13:50.490Z,53.70
2018-10-18T04:18:54.134Z,49.57
2018-10-18T04:23:57.804Z,51.53
2018-10-18T04:29:01.446Z,55.17
2018-10-18T04:34:05.171Z,54.13
2018-10-18T04:39:10.759Z,50.33
2018-10-18T04:44:14.376Z,50.63
2018-10-18T04:49:18.087Z,48.80
2018-10-18T04:54:21.688Z,49.53
2018-10-18T04:59:25.343Z,58.60
2018-10-18T05:04:29.018Z,59.87
2018-10-18T05:09:32.643Z,50.07
2018-10-18T05:14:36.309Z,52.63
2018-10-18T05:19:39.971Z,54.53
2018-10-18T05:24:43.600Z,49.33
2018-10-18T05:29:47.226Z,55.00
2018-10-18T05:34:50.906Z,56.90
2018-10-18T05:39:54.567Z,53.87
2018-10-18T05:44:58.238Z,55.50
2018-10-18T05:50:01.903Z,50.47
2018-10-18T05:55:06.259Z,59.63
2018-10-18T06:00:13.897Z,50.77
2018-10-18T06:05:18.243Z,50.93
2018-10-18T06:10:33.436Z,52.30
2018-10-18T06:15:37.056Z,57.87
2018-10-18T06:20:40.810Z,55.60
2018-10-18T06:25:44.553Z,60.87
2018-10-18T06:30:48.296Z,58.97
2018-10-18T06:35:51.964Z,68.90
2018-10-18T06:40:56.255Z,67.80
2018-10-18T06:46:00.736Z,68.00
2018-10-18T06:51:04.382Z,77.90
2018-10-18T06:56:08.056Z,76.70
2018-10-18T07:01:11.678Z,86.37
2018-10-18T07:06:15.477Z,72.10
2018-10-18T07:11:19.019Z,69.60
2018-10-18T07:16:22.660Z,69.70
2018-10-18T07:21:26.770Z,76.00
2018-10-18T07:26:30.452Z,83.17
2018-10-18T07:31:34.324Z,91.27
2018-10-18T07:36:37.978Z,90.33
2018-10-18T07:41:42.600Z,99.03
2018-10-18T07:46:46.308Z,104.77
2018-10-18T07:51:50.414Z,111.07
2018-10-18T07:56:54.069Z,119.77
2018-10-18T08:01:57.785Z,107.70
2018-10-18T08:07:01.530Z,113.80
2018-10-18T08:12:05.603Z,121.33
2018-10-18T08:17:09.298Z,105.00
2018-10-18T08:22:12.905Z,108.60
2018-10-18T08:27:16.592Z,100.07
2018-10-18T08:32:20.244Z,100.77
2018-10-18T08:37:24.884Z,110.83
2018-10-18T08:42:28.947Z,89.20
2018-10-18T08:47:32.642Z,95.37
2018-10-18T08:52:36.271Z,95.00
2018-10-18T08:57:40.066Z,89.70
2018-10-18T09:02:43.711Z,95.33
2018-10-18T09:07:47.390Z,82.40
2018-10-18T09:12:51.127Z,80.90
2018-10-18T09:17:54.771Z,89.43
2018-10-18T09:22:59.512Z,79.17
2018-10-18T09:28:04.558Z,75.70
2018-10-18T09:33:08.462Z,81.97
2018-10-18T09:38:12.424Z,83.40
2018-10-18T09:43:16.119Z,73.13
2018-10-18T09:48:19.853Z,70.70
2018-10-18T09:53:23.534Z,63.50
2018-10-18T09:58:27.188Z,59.03
2018-10-18T10:03:30.805Z,57.87
2018-10-18T10:08:34.525Z,63.13
2018-10-18T10:13:38.226Z,54.90
2018-10-18T10:18:41.863Z,52.83
2018-10-18T10:23:45.499Z,58.47
2018-10-18T10:28:49.149Z,60.70
2018-10-18T10:33:52.809Z,64.27
2018-10-18T10:38:56.638Z,61.33
2018-10-18T10:44:00.251Z,59.00
2018-10-18T10:49:04.002Z,51.63
2018-10-18T10:54:08.698Z,57.63
2018-10-18T10:59:14.983Z,53.50
2018-10-18T11:04:18.623Z,54.67
2018-10-18T11:09:22.313Z,56.60
2018-10-18T11:14:25.856Z,53.87
2018-10-18T11:19:29.546Z,51.57
2018-10-18T11:24:33.227Z,56.30
2018-10-18T11:29:36.814Z,55.83
2018-10-18T11:34:40.573Z,57.40
2018-10-18T11:39:44.222Z,55.40
2018-10-18T11:44:47.863Z,56.90
2018-10-18T11:49:51.487Z,55.40
2018-10-18T11:54:55.119Z,55.57
2018-10-18T11:59:58.795Z,53.23
2018-10-18T12:05:02.498Z,53.43
2018-10-18T12:10:06.466Z,50.70
2018-10-18T12:15:12.087Z,51.53
2018-10-18T12:20:16.884Z,49.50
2018-10-18T12:25:20.500Z,51.87
2018-10-18T12:30:24.151Z,57.50
2018-10-18T12:35:27.838Z,57.43
2018-10-18T12:40:31.495Z,56.70
2018-10-18T12:45:35.190Z,75.33
2018-10-18T12:50:38.863Z,58.40
2018-10-18T12:55:42.530Z,69.03
2018-10-18T13:00:46.476Z,70.10
2018-10-18T13:05:50.288Z,62.30
2018-10-18T13:10:54.177Z,74.03
2018-10-18T13:15:57.849Z,75.43
2018-10-18T13:21:01.510Z,74.93
2018-10-18T13:26:05.357Z,67.57
2018-10-18T13:31:08.979Z,75.83
2018-10-18T13:36:12.620Z,72.83
2018-10-18T13:41:16.264Z,76.37
2018-10-18T13:46:20.128Z,81.97
2018-10-18T13:51:23.699Z,69.63
2018-10-18T13:56:27.355Z,79.40
2018-10-18T14:01:30.987Z,69.77
2018-10-18T14:06:34.678Z,72.13
2018-10-18T14:11:38.371Z,81.73
2018-10-18T14:16:41.999Z,67.90
2018-10-18T14:21:45.637Z,69.87
2018-10-18T14:26:49.262Z,68.80
2018-10-18T14:31:53.023Z,67.67
2018-10-18T14:36:56.635Z,66.17
2018-10-18T14:42:00.282Z,73.13
2018-10-18T14:47:03.971Z,64.50
2018-10-18T14:52:07.822Z,78.77
2018-10-18T14:57:11.622Z,73.60
2018-10-18T15:02:15.444Z,68.93
2018-10-18T15:07:19.061Z,67.03
2018-10-18T15:12:22.749Z,65.37
2018-10-18T15:17:26.401Z,71.60
2018-10-18T15:22:30.021Z,72.20
2018-10-18T15:27:34.073Z,62.43
2018-10-18T15:32:38.075Z,57.43
2018-10-18T15:37:42.018Z,59.10
2018-10-18T15:42:45.658Z,60.77
2018-10-18T15:47:49.358Z,54.93
2018-10-18T15:52:53.042Z,63.00
2018-10-18T15:57:56.681Z,64.80
2018-10-18T16:03:00.331Z,57.70
2018-10-18T16:08:03.979Z,56.97
2018-10-18T16:13:07.639Z,55.70
2018-10-18T16:18:11.290Z,65.87
2018-10-18T16:23:15.029Z,60.77
2018-10-18T16:28:18.671Z,53.40
2018-10-18T16:33:22.493Z,44.40
2018-10-18T16:38:26.144Z,54.97
2018-10-18T16:43:29.763Z,58.53
2018-10-18T16:48:33.406Z,60.50
2018-10-18T16:53:37.073Z,59.20
2018-10-18T16:58:40.744Z,54.80
2018-10-18T17:03:44.435Z,64.13
2018-10-18T17:08:48.143Z,53.13
2018-10-18T17:13:52.006Z,49.63
2018-10-18T17:18:55.602Z,52.70
2018-10-18T17:23:59.817Z,49.10
2018-10-18T17:29:03.476Z,45.63
2018-10-18T17:34:07.765Z,35.87
2018-10-18T17:39:11.950Z,31.40
2018-10-18T17:44:15.715Z,22.70
2018-10-18T17:49:19.281Z,26.40
2018-10-18T17:54:22.995Z,27.53
2018-10-18T17:59:26.687Z,29.00
2018-10-18T18:04:30.351Z,39.43
2018-10-18T18:09:33.946Z,54.00
2018-10-18T18:14:37.559Z,51.80
2018-10-18T18:19:41.179Z,51.00
2018-10-18T18:24:46.516Z,45.10
2018-10-18T18:29:50.146Z,40.87
2018-10-18T18:34:53.771Z,41.67
2018-10-18T18:39:57.391Z,41.20
2018-10-18T18:45:06.692Z,40.33
2018-10-18T18:50:10.675Z,35.47
2018-10-18T18:55:14.340Z,40.83
2018-10-18T19:00:18.058Z,35.10
2018-10-18T19:05:21.734Z,34.00
2018-10-18T19:10:25.349Z,27.23
2018-10-18T19:15:29.058Z,46.13
2018-10-18T19:20:32.683Z,29.70
2018-10-18T19:25:36.428Z,23.70
2018-10-18T19:30:40.118Z,23.20
2018-10-18T19:35:43.880Z,22.97
2018-10-18T19:40:47.513Z,15.73
2018-10-18T19:45:51.406Z,16.20
2018-10-18T19:50:55.176Z,15.90
2018-10-18T19:55:59.095Z,16.03
2018-10-18T20:01:02.875Z,17.93
2018-10-18T20:06:06.615Z,11.97
2018-10-18T20:11:10.306Z,11.83
2018-10-18T20:16:13.903Z,15.40
2018-10-18T20:21:17.540Z,14.63
2018-10-18T20:26:21.463Z,12.60
2018-10-18T20:31:24.888Z,13.70
2018-10-18T20:36:28.678Z,15.27
2018-10-18T20:41:32.300Z,13.63
2018-10-18T20:46:36.130Z,11.87
2018-10-18T20:51:40.027Z,16.87
2018-10-18T20:56:43.678Z,14.20
2018-10-18T21:01:47.286Z,16.53
2018-10-18T21:06:50.920Z,22.13
2018-10-18T21:11:54.560Z,8.70
2018-10-18T21:16:58.292Z,12.10
2018-10-18T21:22:01.958Z,12.20
2018-10-18T21:27:05.616Z,7.97
2018-10-18T21:32:09.344Z,16.63
2018-10-18T21:37:13.655Z,7.30
2018-10-18T21:42:17.345Z,10.33
2018-10-18T21:47:21.929Z,4.90
2018-10-18T21:52:26.672Z,7.17
2018-10-18T21:57:30.345Z,7.37
2018-10-18T22:02:33.978Z,9.50
2018-10-18T22:07:38.323Z,11.23
2018-10-18T22:12:42.076Z,7.27
2018-10-18T22:17:45.744Z,4.93
2018-10-18T22:22:49.467Z,5.97
2018-10-18T22:27:53.751Z,1.90
2018-10-18T22:32:58.440Z,4.83
2018-10-18T22:38:02.152Z,4.27
2018-10-18T22:43:05.992Z,3.20
2018-10-18T22:48:09.650Z,3.73
2018-10-18T22:53:13.379Z,3.50
2018-10-18T22:58:16.902Z,7.50
2018-10-18T23:03:21.271Z,3.60
2018-10-18T23:08:24.995Z,7.90
2018-10-18T23:13:28.650Z,5.00
2018-10-18T23:18:32.316Z,4.60
2018-10-18T23:23:35.940Z,6.40
2018-10-18T23:28:39.602Z,6.83
2018-10-18T23:33:43.264Z,6.13
2018-10-18T23:38:46.891Z,10.67
2018-10-18T23:43:50.627Z,4.57
2018-10-18T23:48:54.312Z,14.67
2018-10-18T23:53:58.019Z,5.13
2018-10-18T23:59:01.718Z,6.73
